createdAt,value
2023-04-07T00:00:46.739Z,79.55
2023-04-07T00:01:48.892Z,63.65
2023-04-07T00:02:53.740Z,77.85
2023-04-07T00:03:56.530Z,85.95
2023-04-07T00:05:03.225Z,64.07
2023-04-07T00:06:05.767Z,70.70
2023-04-07T00:07:10.748Z,53.25
2023-04-07T00:08:12.834Z,89.35
2023-04-07T00:09:17.509Z,180.13
2023-04-07T00:10:19.607Z,65.18
2023-04-07T00:11:24.345Z,70.60
2023-04-07T00:12:26.574Z,68.25
2023-04-07T00:13:31.416Z,71.30
2023-04-07T00:14:33.588Z,71.00
2023-04-07T00:15:38.279Z,72.15
2023-04-07T00:16:43.023Z,79.72
2023-04-07T00:17:47.753Z,79.00
2023-04-07T00:18:49.856Z,103.07
2023-04-07T00:19:54.590Z,102.65
2023-04-07T00:20:57.198Z,100.53
2023-04-07T00:22:02.059Z,89.18
2023-04-07T00:23:14.761Z,132.82
2023-04-07T00:24:27.407Z,72.07
2023-04-07T00:25:33.546Z,77.18
2023-04-07T00:26:38.204Z,80.90
2023-04-07T00:27:40.471Z,78.88
2023-04-07T00:28:45.181Z,79.43
2023-04-07T00:29:47.237Z,86.85
2023-04-07T00:30:51.906Z,80.45
2023-04-07T00:31:56.747Z,87.53
2023-04-07T00:33:01.420Z,68.07
2023-04-07T00:34:03.606Z,70.88
2023-04-07T00:35:09.277Z,65.60
2023-04-07T00:36:11.507Z,70.50
2023-04-07T00:37:16.256Z,83.72
2023-04-07T00:38:18.318Z,67.95
2023-04-07T00:39:23.977Z,72.18
2023-04-07T00:40:26.364Z,90.10
2023-04-07T00:41:31.029Z,72.50
2023-04-07T00:42:33.878Z,76.65
2023-04-07T00:43:38.519Z,63.97
2023-04-07T00:44:40.752Z,69.10
2023-04-07T00:45:45.512Z,71.85
2023-04-07T00:46:48.671Z,112.20
2023-04-07T00:47:56.181Z,76.47
2023-04-07T00:48:58.293Z,84.63
2023-04-07T00:50:03.028Z,92.20
2023-04-07T00:51:07.085Z,68.00
2023-04-07T00:52:13.832Z,71.78
2023-04-07T00:53:16.467Z,89.85
2023-04-07T00:54:22.022Z,71.47
2023-04-07T00:55:24.237Z,55.60
2023-04-07T00:56:29.031Z,77.10
2023-04-07T00:57:31.189Z,63.65
2023-04-07T00:58:36.171Z,82.00
2023-04-07T00:59:38.838Z,98.32
2023-04-07T01:01:25.807Z,81.68
2023-04-07T01:02:41.637Z,37.65
2023-04-07T01:06:23.748Z,37.30
2023-04-07T01:08:09.179Z,48.30
2023-04-07T01:09:28.361Z,115.53
2023-04-07T01:10:38.054Z,118.00
2023-04-07T01:11:48.623Z,69.28
2023-04-07T01:12:57.579Z,113.90
2023-04-07T01:14:03.728Z,105.40
2023-04-07T01:15:10.129Z,100.60
2023-04-07T01:16:19.636Z,93.85
2023-04-07T01:17:26.085Z,112.63
2023-04-07T01:18:35.292Z,98.35
2023-04-07T01:19:43.673Z,97.43
2023-04-07T01:20:52.862Z,109.80
2023-04-07T01:21:58.619Z,106.88
2023-04-07T01:23:08.033Z,104.78
2023-04-07T01:24:43.012Z,87.78
2023-04-07T01:26:00.759Z,79.97
2023-04-07T01:27:24.169Z,101.18
2023-04-07T01:28:50.709Z,86.78
2023-04-07T01:29:59.671Z,114.15
2023-04-07T01:31:03.408Z,117.10
2023-04-07T01:32:10.290Z,113.43
2023-04-07T01:33:14.547Z,119.70
2023-04-07T01:34:20.538Z,103.00
2023-04-07T01:35:24.334Z,99.05
2023-04-07T01:36:31.868Z,98.93
2023-04-07T01:37:34.638Z,111.63
2023-04-07T01:38:40.948Z,100.43
2023-04-07T01:39:43.434Z,91.88
2023-04-07T01:40:50.245Z,105.75
2023-04-07T01:41:54.189Z,98.07
2023-04-07T01:43:00.082Z,97.13
2023-04-07T01:44:03.379Z,108.95
2023-04-07T01:45:12.353Z,96.28
2023-04-07T01:46:14.722Z,95.57
2023-04-07T01:47:20.628Z,108.00
2023-04-07T01:48:23.199Z,97.30
2023-04-07T01:49:29.844Z,65.50
2023-04-07T01:50:32.515Z,88.93
2023-04-07T01:51:37.680Z,101.15
2023-04-07T01:52:40.620Z,105.75
2023-04-07T01:53:45.792Z,103.70
2023-04-07T01:54:48.680Z,103.13
2023-04-07T01:55:55.228Z,111.22
2023-04-07T01:56:57.583Z,70.03
2023-04-07T01:58:06.731Z,112.28
2023-04-07T01:59:08.846Z,99.80
2023-04-07T02:00:17.500Z,98.25
2023-04-07T02:01:19.779Z,137.60
2023-04-07T02:02:25.008Z,109.18
2023-04-07T02:03:32.116Z,114.53
2023-04-07T02:04:43.313Z,126.00
2023-04-07T02:05:45.546Z,127.13
2023-04-07T02:06:54.727Z,136.15
2023-04-07T02:08:02.826Z,128.50
2023-04-07T02:09:11.017Z,113.80
2023-04-07T02:10:16.877Z,113.13
2023-04-07T02:11:24.737Z,113.03
2023-04-07T02:12:29.163Z,107.38
2023-04-07T02:13:35.845Z,115.80
2023-04-07T02:14:38.770Z,115.45
2023-04-07T02:15:47.198Z,114.00
2023-04-07T02:16:50.293Z,96.22
2023-04-07T02:17:57.564Z,115.55
2023-04-07T02:18:59.998Z,124.60
2023-04-07T02:20:05.719Z,131.52
2023-04-07T02:21:09.095Z,113.00
2023-04-07T02:22:15.055Z,129.13
2023-04-07T02:23:17.554Z,115.22
2023-04-07T02:24:23.629Z,113.53
2023-04-07T02:25:26.921Z,122.97
2023-04-07T02:26:35.636Z,123.13
2023-04-07T02:27:37.725Z,115.68
2023-04-07T02:28:42.478Z,109.93
2023-04-07T02:29:44.674Z,110.93
2023-04-07T02:30:51.995Z,116.35
2023-04-07T02:31:54.190Z,135.43
2023-04-07T02:32:59.259Z,126.55
2023-04-07T02:34:01.531Z,122.53
2023-04-07T02:35:06.651Z,140.55
2023-04-07T02:36:08.837Z,116.75
2023-04-07T02:37:13.588Z,141.68
2023-04-07T02:38:15.763Z,109.13
2023-04-07T02:39:20.504Z,122.50
2023-04-07T02:40:22.564Z,115.43
2023-04-07T02:41:27.686Z,109.03
2023-04-07T02:42:29.790Z,110.63
2023-04-07T02:43:34.506Z,131.95
2023-04-07T02:44:36.584Z,89.82
2023-04-07T02:45:41.318Z,113.57
2023-04-07T02:46:46.177Z,108.75
2023-04-07T02:47:51.057Z,109.32
2023-04-07T02:48:53.257Z,128.20
2023-04-07T02:49:57.982Z,154.60
2023-04-07T02:51:00.125Z,135.23
2023-04-07T02:52:04.847Z,138.52
2023-04-07T02:53:07.127Z,114.35
2023-04-07T02:54:11.897Z,122.50
2023-04-07T02:55:14.075Z,135.00
2023-04-07T02:56:19.297Z,116.13
2023-04-07T02:57:21.713Z,113.85
2023-04-07T02:58:26.410Z,111.03
2023-04-07T02:59:28.642Z,109.75
2023-04-07T03:00:33.461Z,134.05
2023-04-07T03:01:36.583Z,117.72
2023-04-07T03:02:44.149Z,122.70
2023-04-07T03:03:48.141Z,112.72
2023-04-07T03:04:54.275Z,130.57
2023-04-07T03:05:56.358Z,121.30
2023-04-07T03:07:02.043Z,134.27
2023-04-07T03:08:04.379Z,136.20
2023-04-07T03:09:09.802Z,131.60
2023-04-07T03:10:11.909Z,134.30
2023-04-07T03:11:16.572Z,121.32
2023-04-07T03:12:18.658Z,96.65
2023-04-07T03:13:24.006Z,138.82
2023-04-07T03:14:26.183Z,129.40
2023-04-07T03:15:30.828Z,157.60
2023-04-07T03:16:33.004Z,132.38
2023-04-07T03:17:38.040Z,147.15
2023-04-07T03:18:42.801Z,147.43
2023-04-07T03:19:47.468Z,134.63
2023-04-07T03:20:49.813Z,152.52
2023-04-07T03:21:54.497Z,132.27
2023-04-07T03:22:56.568Z,136.63
2023-04-07T03:24:01.431Z,118.30
2023-04-07T03:25:03.717Z,148.27
2023-04-07T03:26:08.468Z,127.97
2023-04-07T03:27:10.579Z,139.15
2023-04-07T03:28:15.223Z,159.55
2023-04-07T03:29:17.306Z,123.32
2023-04-07T03:30:22.221Z,119.35
2023-04-07T03:31:24.288Z,124.68
2023-04-07T03:32:29.015Z,117.45
2023-04-07T03:33:31.147Z,127.82
2023-04-07T03:34:38.372Z,131.88
2023-04-07T03:35:40.795Z,123.60
2023-04-07T03:36:45.485Z,117.13
2023-04-07T03:37:47.556Z,138.93
2023-04-07T03:38:52.334Z,134.98
2023-04-07T03:39:54.376Z,126.25
2023-04-07T03:40:59.034Z,128.75
2023-04-07T03:42:01.214Z,148.82
2023-04-07T03:43:06.172Z,154.73
2023-04-07T03:44:08.253Z,137.57
2023-04-07T03:45:13.176Z,145.38
2023-04-07T03:46:15.691Z,118.05
2023-04-07T03:47:20.484Z,98.55
2023-04-07T03:48:22.697Z,126.93
2023-04-07T03:49:27.749Z,91.20
2023-04-07T03:50:32.387Z,87.20
2023-04-07T03:51:37.007Z,140.55
2023-04-07T03:52:39.057Z,137.93
2023-04-07T03:53:43.711Z,129.82
2023-04-07T03:54:46.031Z,118.35
2023-04-07T03:55:50.920Z,132.68
2023-04-07T03:57:02.507Z,132.80
2023-04-07T03:58:07.193Z,141.98
2023-04-07T03:59:09.527Z,153.60
2023-04-07T04:00:16.294Z,148.65
2023-04-07T04:01:18.428Z,143.57
2023-04-07T04:02:23.195Z,139.50
2023-04-07T04:03:25.559Z,152.25
2023-04-07T04:04:30.285Z,161.40
2023-04-07T04:05:34.857Z,140.13
2023-04-07T04:06:45.545Z,114.65
2023-04-07T04:07:47.568Z,129.63
2023-04-07T04:08:52.232Z,138.93
2023-04-07T04:09:54.310Z,152.48
2023-04-07T04:10:59.004Z,149.13
2023-04-07T04:12:01.374Z,134.40
2023-04-07T04:13:08.176Z,146.82
2023-04-07T04:14:10.466Z,141.50
2023-04-07T04:15:15.097Z,123.90
2023-04-07T04:16:17.178Z,137.32
2023-04-07T04:17:21.862Z,124.43
2023-04-07T04:18:24.024Z,115.78
2023-04-07T04:19:28.691Z,119.80
2023-04-07T04:20:30.972Z,129.40
2023-04-07T04:21:38.333Z,118.95
2023-04-07T04:22:40.356Z,134.32
2023-04-07T04:23:45.010Z,119.03
2023-04-07T04:24:47.178Z,112.72
2023-04-07T04:25:51.947Z,132.35
2023-04-07T04:26:54.001Z,101.88
2023-04-07T04:27:58.799Z,97.80
2023-04-07T04:29:01.000Z,146.30
2023-04-07T04:30:05.720Z,107.80
2023-04-07T04:31:07.868Z,142.68
2023-04-07T04:32:12.565Z,142.43
2023-04-07T04:33:17.181Z,123.15
2023-04-07T04:34:19.292Z,130.05
2023-04-07T04:35:23.926Z,106.50
2023-04-07T04:36:26.608Z,130.88
2023-04-07T04:37:33.840Z,121.95
2023-04-07T04:38:35.904Z,134.13
2023-04-07T04:39:40.730Z,134.93
2023-04-07T04:40:42.946Z,140.25
2023-04-07T04:41:48.405Z,127.40
2023-04-07T04:42:50.736Z,138.48
2023-04-07T04:43:55.374Z,135.75
2023-04-07T04:44:57.982Z,136.23
2023-04-07T04:46:02.664Z,125.45
2023-04-07T04:47:04.885Z,152.60
2023-04-07T04:48:11.172Z,146.95
2023-04-07T04:49:13.283Z,149.77
2023-04-07T04:50:17.908Z,141.18
2023-04-07T04:51:20.028Z,135.82
2023-04-07T04:52:24.723Z,152.73
2023-04-07T04:53:29.348Z,141.75
2023-04-07T04:54:34.031Z,128.73
2023-04-07T04:55:36.309Z,135.77
2023-04-07T04:56:40.980Z,134.35
2023-04-07T04:57:43.044Z,142.88
2023-04-07T04:58:48.005Z,131.95
2023-04-07T04:59:50.084Z,139.20
2023-04-07T05:00:58.447Z,131.32
2023-04-07T05:02:00.767Z,143.40
2023-04-07T05:03:05.771Z,176.68
2023-04-07T05:04:09.736Z,138.63
2023-04-07T05:05:15.070Z,131.52
2023-04-07T05:06:17.272Z,123.75
2023-04-07T05:07:21.914Z,110.85
2023-04-07T05:08:23.943Z,167.18
2023-04-07T05:09:31.305Z,128.13
2023-04-07T05:10:35.989Z,132.30
2023-04-07T05:11:38.070Z,141.60
2023-04-07T05:12:42.715Z,135.57
2023-04-07T05:13:44.823Z,135.48
2023-04-07T05:14:49.513Z,134.48
2023-04-07T05:15:51.861Z,143.10
2023-04-07T05:16:57.046Z,152.77
2023-04-07T05:17:59.236Z,132.73
2023-04-07T05:19:03.982Z,128.25
2023-04-07T05:20:09.668Z,148.82
2023-04-07T05:21:14.344Z,152.90
2023-04-07T05:22:16.646Z,135.98
2023-04-07T05:23:21.276Z,170.93
2023-04-07T05:24:23.306Z,103.50
2023-04-07T05:25:30.670Z,99.63
2023-04-07T05:26:32.814Z,140.73
2023-04-07T05:27:37.445Z,125.65
2023-04-07T05:28:39.510Z,135.80
2023-04-07T05:29:44.178Z,127.53
2023-04-07T05:30:48.838Z,133.73
2023-04-07T05:31:51.035Z,132.45
2023-04-07T05:32:56.638Z,130.43
2023-04-07T05:33:58.797Z,132.30
2023-04-07T05:35:03.425Z,134.13
2023-04-07T05:36:06.483Z,128.50
2023-04-07T05:37:11.211Z,154.32
2023-04-07T05:38:13.706Z,144.98
2023-04-07T05:39:18.359Z,156.02
2023-04-07T05:40:20.616Z,111.32
2023-04-07T05:41:27.920Z,140.50
2023-04-07T05:42:30.069Z,157.32
2023-04-07T05:43:34.779Z,127.60
2023-04-07T05:44:36.864Z,136.45
2023-04-07T05:45:41.595Z,149.13
2023-04-07T05:46:43.698Z,148.45
2023-04-07T05:47:50.290Z,129.73
2023-04-07T05:48:52.337Z,136.55
2023-04-07T05:49:57.075Z,136.30
2023-04-07T05:50:59.179Z,135.57
2023-04-07T05:52:03.866Z,165.27
2023-04-07T05:53:05.972Z,178.85
2023-04-07T05:54:10.862Z,156.75
2023-04-07T05:55:15.808Z,164.15
2023-04-07T05:56:17.847Z,166.75
2023-04-07T05:57:27.675Z,150.45
2023-04-07T05:58:29.730Z,144.48
2023-04-07T05:59:34.414Z,155.05
2023-04-07T06:00:36.465Z,114.40
2023-04-07T06:01:42.082Z,116.90
2023-04-07T06:02:44.271Z,144.73
2023-04-07T06:03:49.247Z,118.93
2023-04-07T06:04:51.707Z,168.35
2023-04-07T06:05:56.402Z,155.48
2023-04-07T06:06:58.569Z,126.43
2023-04-07T06:08:03.189Z,116.00
2023-04-07T06:09:06.890Z,148.13
2023-04-07T06:10:12.470Z,142.30
2023-04-07T06:11:14.576Z,150.00
2023-04-07T06:12:19.254Z,129.35
2023-04-07T06:13:23.922Z,140.55
2023-04-07T06:14:28.877Z,148.63
2023-04-07T06:15:30.972Z,132.27
2023-04-07T06:16:35.949Z,139.27
2023-04-07T06:17:38.136Z,130.00
2023-04-07T06:18:42.919Z,142.65
2023-04-07T06:19:44.931Z,156.60
2023-04-07T06:20:49.613Z,144.27
2023-04-07T06:21:51.657Z,94.20
2023-04-07T06:22:56.457Z,101.20
2023-04-07T06:23:58.498Z,110.97
2023-04-07T06:25:03.190Z,113.25
2023-04-07T06:26:05.740Z,96.13
2023-04-07T06:27:10.525Z,117.63
2023-04-07T06:28:12.731Z,110.07
2023-04-07T06:29:20.013Z,129.52
2023-04-07T06:30:22.035Z,104.50
2023-04-07T06:31:27.208Z,102.95
2023-04-07T06:32:29.316Z,90.32
2023-04-07T06:33:33.979Z,115.75
2023-04-07T06:34:36.464Z,86.63
2023-04-07T06:35:42.781Z,125.22
2023-04-07T06:36:47.558Z,76.10
2023-04-07T06:37:49.709Z,84.15
2023-04-07T06:38:54.352Z,114.85
2023-04-07T06:39:56.562Z,101.43
2023-04-07T06:41:01.331Z,92.72
2023-04-07T06:42:03.363Z,124.05
2023-04-07T06:43:07.999Z,86.63
2023-04-07T06:44:13.042Z,126.93
2023-04-07T06:45:17.709Z,108.03
2023-04-07T06:46:23.213Z,94.53
2023-04-07T06:47:25.416Z,104.38
2023-04-07T06:48:30.312Z,93.20
2023-04-07T06:49:37.052Z,93.32
2023-04-07T06:50:41.877Z,115.70
2023-04-07T06:51:43.960Z,81.53
2023-04-07T06:52:48.573Z,85.60
2023-04-07T06:53:50.767Z,108.20
2023-04-07T06:54:55.422Z,80.32
2023-04-07T06:56:04.282Z,82.53
2023-04-07T06:57:12.285Z,93.97
2023-04-07T06:58:16.956Z,91.10
2023-04-07T06:59:21.724Z,75.97
2023-04-07T07:00:31.047Z,74.95
2023-04-07T07:01:33.485Z,77.43
2023-04-07T07:02:38.366Z,78.90
2023-04-07T07:03:40.715Z,128.90
2023-04-07T07:04:45.467Z,81.78
2023-04-07T07:05:48.994Z,72.60
2023-04-07T07:06:56.211Z,76.15
2023-04-07T07:07:58.421Z,83.55
2023-04-07T07:09:03.597Z,78.07
2023-04-07T07:10:07.068Z,90.22
2023-04-07T07:11:12.084Z,94.80
2023-04-07T07:13:52.351Z,77.03
2023-04-07T07:14:54.399Z,75.28
2023-04-07T07:16:01.664Z,81.43
2023-04-07T07:17:03.797Z,88.70
2023-04-07T07:18:08.553Z,78.10
2023-04-07T07:19:10.594Z,73.78
2023-04-07T07:20:15.487Z,90.25
2023-04-07T07:21:18.945Z,95.32
2023-04-07T07:22:23.709Z,67.80
2023-04-07T07:23:28.397Z,77.57
2023-04-07T07:24:34.264Z,68.50
2023-04-07T07:25:36.455Z,73.45
2023-04-07T07:26:43.470Z,80.45
2023-04-07T07:27:46.266Z,71.38
2023-04-07T07:28:50.902Z,77.40
2023-04-07T07:29:55.536Z,71.97
2023-04-07T07:31:04.620Z,82.72
2023-04-07T07:32:06.710Z,103.28
2023-04-07T07:33:11.516Z,116.30
2023-04-07T07:34:13.609Z,112.15
2023-04-07T07:35:18.610Z,113.90
2023-04-07T07:36:23.460Z,110.05
2023-04-07T07:37:25.796Z,100.40
2023-04-07T07:40:10.416Z,173.65
2023-04-07T07:41:12.520Z,109.90
2023-04-07T07:42:17.199Z,110.38
2023-04-07T07:43:19.342Z,107.85
2023-04-07T07:44:24.068Z,83.90
2023-04-07T07:45:26.249Z,93.45
2023-04-07T07:46:33.525Z,102.97
2023-04-07T07:47:38.715Z,89.85
2023-04-07T07:48:40.733Z,101.68
2023-04-07T07:49:45.497Z,146.20
2023-04-07T07:50:48.550Z,139.02
2023-04-07T07:51:53.306Z,109.57
2023-04-07T07:52:57.973Z,133.40
2023-04-07T07:54:02.680Z,124.63
2023-04-07T07:55:05.590Z,140.65
2023-04-07T07:56:10.220Z,182.10
2023-04-07T07:57:14.859Z,155.65
2023-04-07T07:58:16.931Z,181.35
2023-04-07T07:59:21.711Z,124.13
2023-04-07T08:00:24.241Z,128.77
2023-04-07T08:01:28.954Z,166.02
2023-04-07T08:02:34.181Z,121.10
2023-04-07T08:03:39.199Z,134.35
2023-04-07T08:04:41.807Z,191.88
2023-04-07T08:05:46.790Z,136.82
2023-04-07T08:06:51.841Z,158.27
2023-04-07T08:07:55.572Z,172.02
2023-04-07T08:09:00.765Z,142.95
2023-04-07T08:10:02.875Z,180.25
2023-04-07T08:11:07.667Z,200.45
2023-04-07T08:12:09.682Z,165.80
2023-04-07T08:13:14.358Z,177.30
2023-04-07T08:14:16.658Z,191.25
2023-04-07T08:15:21.503Z,286.00
2023-04-07T08:16:27.110Z,163.65
2023-04-07T08:17:29.225Z,189.18
2023-04-07T08:18:36.491Z,257.55
2023-04-07T08:19:40.686Z,190.32
2023-04-07T08:20:45.272Z,183.05
2023-04-07T08:21:47.302Z,368.65
2023-04-07T08:22:52.019Z,181.75
2023-04-07T08:23:54.451Z,178.40
2023-04-07T08:24:59.294Z,178.65
2023-04-07T08:26:04.043Z,177.85
2023-04-07T08:27:06.201Z,235.73
2023-04-07T08:28:10.906Z,222.63
2023-04-07T08:29:13.107Z,179.65
2023-04-07T08:30:17.917Z,204.55
2023-04-07T08:31:20.165Z,175.65
2023-04-07T08:32:24.805Z,185.60
2023-04-07T08:33:26.918Z,178.40
2023-04-07T08:34:34.235Z,169.18
2023-04-07T08:35:39.051Z,184.32
2023-04-07T08:36:43.537Z,184.85
2023-04-07T08:37:49.735Z,185.68
2023-04-07T08:38:51.783Z,202.18
2023-04-07T08:39:56.372Z,174.27
2023-04-07T08:41:03.806Z,181.40
2023-04-07T08:42:10.344Z,192.60
2023-04-07T08:43:18.183Z,180.70
2023-04-07T08:44:23.270Z,135.65
2023-04-07T08:45:29.252Z,143.88
2023-04-07T08:46:36.057Z,147.65
2023-04-07T08:47:38.548Z,153.65
2023-04-07T08:48:47.130Z,161.15
2023-04-07T08:49:55.969Z,151.65
2023-04-07T08:51:01.201Z,190.20
2023-04-07T08:52:09.116Z,206.95
2023-04-07T08:53:17.090Z,182.75
2023-04-07T08:54:22.792Z,230.48
2023-04-07T08:55:26.531Z,224.40
2023-04-07T08:56:31.550Z,182.80
2023-04-07T08:57:34.478Z,195.52
2023-04-07T08:58:39.523Z,259.15
2023-04-07T08:59:44.828Z,213.07
2023-04-07T09:00:50.310Z,191.85
2023-04-07T09:01:53.031Z,194.57
2023-04-07T09:02:58.637Z,163.93
2023-04-07T09:04:03.085Z,150.45
2023-04-07T09:05:11.781Z,191.52
2023-04-07T09:06:14.572Z,155.52
2023-04-07T09:07:19.229Z,161.40
2023-04-07T09:08:23.844Z,157.48
2023-04-07T09:09:25.865Z,150.38
2023-04-07T09:10:30.516Z,111.78
2023-04-07T09:11:40.812Z,131.63
2023-04-07T09:12:45.754Z,149.73
2023-04-07T09:13:48.022Z,116.60
2023-04-07T09:15:17.081Z,117.00
2023-04-07T09:18:07.511Z,191.63
2023-04-07T09:19:09.550Z,163.27
2023-04-07T09:20:16.943Z,157.13
2023-04-07T09:21:21.603Z,140.13
2023-04-07T09:22:37.515Z,107.57
2023-04-07T09:23:44.076Z,123.75
2023-04-07T09:24:46.307Z,140.07
2023-04-07T09:25:50.981Z,118.10
2023-04-07T09:27:13.988Z,127.68
2023-04-07T09:28:20.030Z,207.88
2023-04-07T09:29:24.635Z,123.20
2023-04-07T09:30:27.861Z,134.43
2023-04-07T09:31:48.452Z,167.40
2023-04-07T09:32:50.820Z,121.88
2023-04-07T09:33:55.754Z,119.10
2023-04-07T09:34:59.612Z,113.07
2023-04-07T09:36:08.128Z,110.40
2023-04-07T09:37:25.284Z,114.38
2023-04-07T09:38:36.599Z,214.10
2023-04-07T09:39:52.780Z,198.60
2023-04-07T09:41:09.183Z,229.82
2023-04-07T09:42:13.981Z,218.73
2023-04-07T09:43:20.193Z,178.02
2023-04-07T09:44:23.391Z,288.50
2023-04-07T09:46:36.806Z,183.15
2023-04-07T09:47:41.799Z,114.88
2023-04-07T09:48:48.749Z,116.85
2023-04-07T09:50:23.600Z,131.52
2023-04-07T09:51:31.038Z,112.03
2023-04-07T09:52:54.110Z,109.57
2023-04-07T09:53:56.178Z,105.88
2023-04-07T09:55:01.716Z,177.48
2023-04-07T09:56:04.729Z,124.65
2023-04-07T09:57:11.505Z,135.63
2023-04-07T09:58:17.174Z,144.77
2023-04-07T09:59:23.262Z,141.07
2023-04-07T10:00:25.695Z,109.03
2023-04-07T10:01:30.485Z,116.78
2023-04-07T10:02:33.042Z,107.47
2023-04-07T10:03:37.964Z,118.40
2023-04-07T10:04:44.021Z,124.75
2023-04-07T10:05:47.070Z,117.10
2023-04-07T10:06:55.533Z,124.25
2023-04-07T10:07:57.748Z,158.98
2023-04-07T10:09:02.504Z,105.70
2023-04-07T10:10:05.284Z,150.80
2023-04-07T10:11:10.143Z,142.43
2023-04-07T10:12:13.893Z,147.00
2023-04-07T10:13:18.842Z,153.60
2023-04-07T10:14:25.854Z,156.10
2023-04-07T10:15:27.968Z,161.25
2023-04-07T10:16:33.202Z,131.68
2023-04-07T10:17:36.846Z,164.52
2023-04-07T10:18:42.774Z,121.05
2023-04-07T10:19:46.111Z,113.00
2023-04-07T10:20:52.595Z,126.85
2023-04-07T10:22:00.524Z,123.35
2023-04-07T10:23:09.850Z,99.15
2023-04-07T10:24:25.911Z,234.40
2023-04-07T10:25:30.978Z,145.52
2023-04-07T10:26:35.802Z,129.63
2023-04-07T10:27:50.398Z,141.82
2023-04-07T10:29:02.488Z,119.72
2023-04-07T10:30:12.898Z,162.77
2023-04-07T10:31:18.029Z,169.65
2023-04-07T10:32:28.909Z,212.93
2023-04-07T10:33:52.451Z,113.55
2023-04-07T10:35:03.956Z,124.93
2023-04-07T10:36:07.872Z,128.43
2023-04-07T10:37:18.053Z,190.20
2023-04-07T10:38:22.957Z,176.05
2023-04-07T10:39:27.747Z,117.57
2023-04-07T10:40:31.494Z,109.00
2023-04-07T10:41:37.895Z,126.00
2023-04-07T10:42:47.206Z,141.27
2023-04-07T10:43:51.867Z,183.73
2023-04-07T10:44:57.169Z,145.43
2023-04-07T10:46:02.408Z,155.00
2023-04-07T10:47:05.388Z,137.85
2023-04-07T10:48:14.508Z,139.82
2023-04-07T10:49:18.638Z,135.73
2023-04-07T10:50:26.764Z,154.85
2023-04-07T10:51:31.418Z,127.03
2023-04-07T10:52:36.224Z,142.27
2023-04-07T10:53:41.170Z,115.15
2023-04-07T10:54:43.273Z,116.22
2023-04-07T10:55:48.569Z,149.25
2023-04-07T10:57:11.120Z,140.52
2023-04-07T10:58:29.143Z,163.32
2023-04-07T10:59:31.666Z,168.57
2023-04-07T11:00:36.320Z,143.45
2023-04-07T11:01:38.458Z,149.25
2023-04-07T11:02:43.576Z,171.80
2023-04-07T11:04:00.343Z,132.27
2023-04-07T11:05:06.067Z,123.53
2023-04-07T11:06:09.621Z,182.32
2023-04-07T11:07:14.839Z,162.75
2023-04-07T11:08:35.695Z,143.07
2023-04-07T11:09:40.622Z,223.63
2023-04-07T11:10:48.222Z,143.70
2023-04-07T11:11:53.679Z,128.88
2023-04-07T11:13:07.133Z,133.13
2023-04-07T11:14:11.902Z,134.63
2023-04-07T11:15:18.200Z,158.70
2023-04-07T11:16:37.263Z,171.20
2023-04-07T11:17:39.301Z,129.15
2023-04-07T11:18:44.235Z,134.88
2023-04-07T11:19:52.695Z,113.93
2023-04-07T11:20:58.862Z,124.35
2023-04-07T11:22:28.718Z,103.53
2023-04-07T11:23:41.865Z,98.65
2023-04-07T11:25:50.061Z,69.63
2023-04-07T11:26:54.682Z,61.22
2023-04-07T11:27:57.927Z,87.35
2023-04-07T11:29:02.687Z,143.48
2023-04-07T11:30:08.967Z,112.07
2023-04-07T11:31:14.611Z,129.68
2023-04-07T11:32:19.465Z,136.65
2023-04-07T11:33:25.876Z,163.27
2023-04-07T11:34:33.429Z,135.65
2023-04-07T11:35:36.055Z,139.52
2023-04-07T11:36:43.293Z,135.05
2023-04-07T11:37:45.888Z,122.70
2023-04-07T11:38:53.129Z,128.70
2023-04-07T11:39:56.242Z,111.55
2023-04-07T11:41:00.885Z,104.95
2023-04-07T11:42:03.078Z,89.95
2023-04-07T11:43:18.953Z,135.32
2023-04-07T11:44:21.116Z,237.55
2023-04-07T11:45:26.049Z,124.72
2023-04-07T11:46:30.716Z,185.35
2023-04-07T11:47:38.747Z,170.65
2023-04-07T11:48:44.951Z,146.38
2023-04-07T11:49:47.307Z,105.05
2023-04-07T11:50:51.922Z,141.73
2023-04-07T11:52:02.145Z,97.30
2023-04-07T11:53:25.204Z,77.60
2023-04-07T11:54:42.776Z,66.53
2023-04-07T11:55:44.901Z,129.05
2023-04-07T11:56:52.046Z,125.57
2023-04-07T11:57:54.471Z,225.30
2023-04-07T11:58:59.347Z,149.82
2023-04-07T12:00:08.829Z,123.22
2023-04-07T12:01:14.177Z,91.10
2023-04-07T12:02:34.582Z,232.13
2023-04-07T12:03:38.447Z,103.45
2023-04-07T12:05:00.600Z,163.82
2023-04-07T12:06:03.626Z,128.65
2023-04-07T12:07:12.305Z,121.03
2023-04-07T12:08:15.082Z,150.35
2023-04-07T12:09:36.080Z,158.50
2023-04-07T12:10:40.653Z,148.48
2023-04-07T12:11:52.690Z,117.88
2023-04-07T12:12:59.301Z,132.07
2023-04-07T12:14:05.403Z,90.57
2023-04-07T12:15:11.020Z,88.35
2023-04-07T12:16:13.084Z,73.20
2023-04-07T12:17:23.675Z,86.93
2023-04-07T12:18:26.015Z,93.97
2023-04-07T12:19:32.919Z,100.63
2023-04-07T12:20:37.952Z,100.45
2023-04-07T12:21:40.174Z,162.63
2023-04-07T12:24:37.828Z,113.70
2023-04-07T12:25:40.074Z,105.60
2023-04-07T12:26:44.698Z,101.95
2023-04-07T12:27:47.001Z,113.60
2023-04-07T12:28:51.629Z,140.43
2023-04-07T12:29:53.672Z,138.05
2023-04-07T12:30:59.028Z,114.97
2023-04-07T12:32:01.110Z,141.45
2023-04-07T12:33:06.252Z,108.18
2023-04-07T12:34:08.372Z,129.95
2023-04-07T12:35:13.022Z,134.80
2023-04-07T12:36:17.660Z,141.60
2023-04-07T12:37:19.755Z,205.45
2023-04-07T12:38:24.450Z,176.27
2023-04-07T12:39:26.644Z,148.63
2023-04-07T12:40:34.785Z,137.55
2023-04-07T12:41:38.788Z,131.77
2023-04-07T12:42:43.423Z,179.40
2023-04-07T12:43:48.421Z,204.68
2023-04-07T12:44:50.712Z,164.18
2023-04-07T12:45:55.353Z,153.70
2023-04-07T12:46:57.455Z,127.00
2023-04-07T12:48:02.242Z,189.82
2023-04-07T12:49:04.385Z,159.07
2023-04-07T12:50:10.053Z,137.48
2023-04-07T12:51:14.732Z,116.68
2023-04-07T12:52:17.033Z,185.43
2023-04-07T12:53:21.703Z,186.02
2023-04-07T12:54:24.261Z,180.65
2023-04-07T12:55:29.026Z,122.28
2023-04-07T12:56:36.486Z,142.95
2023-04-07T12:57:38.904Z,134.48
2023-04-07T12:58:44.007Z,138.73
2023-04-07T12:59:46.280Z,121.80
2023-04-07T13:00:51.421Z,122.25
2023-04-07T13:01:53.853Z,133.57
2023-04-07T13:02:58.847Z,139.68
2023-04-07T13:04:03.842Z,104.22
2023-04-07T13:05:08.805Z,95.45
2023-04-07T13:06:11.951Z,92.70
2023-04-07T13:07:17.033Z,78.88
2023-04-07T13:08:19.105Z,83.75
2023-04-07T13:09:23.761Z,132.25
2023-04-07T13:10:26.183Z,121.13
2023-04-07T13:11:30.795Z,105.65
2023-04-07T13:12:35.674Z,129.15
2023-04-07T13:13:40.290Z,109.70
2023-04-07T13:14:52.813Z,142.93
2023-04-07T13:16:04.547Z,160.20
2023-04-07T13:17:07.168Z,89.03
2023-04-07T13:18:12.069Z,110.47
2023-04-07T13:19:14.132Z,150.85
2023-04-07T13:20:20.791Z,111.75
2023-04-07T13:22:31.956Z,208.77
2023-04-07T13:23:42.597Z,209.23
2023-04-07T13:24:54.382Z,145.73
2023-04-07T13:25:56.468Z,182.25
2023-04-07T13:27:01.329Z,156.93
2023-04-07T13:28:06.764Z,164.93
2023-04-07T13:29:11.584Z,166.25
2023-04-07T13:30:13.782Z,192.82
2023-04-07T13:31:18.579Z,183.88
2023-04-07T13:32:20.723Z,172.05
2023-04-07T13:33:25.310Z,183.85
2023-04-07T13:34:27.828Z,130.38
2023-04-07T13:35:36.087Z,136.32
2023-04-07T13:36:40.811Z,147.90
2023-04-07T13:37:45.455Z,154.45
2023-04-07T13:38:47.494Z,162.57
2023-04-07T13:39:52.160Z,152.13
2023-04-07T13:40:54.180Z,188.73
2023-04-07T13:41:58.975Z,147.30
2023-04-07T13:43:01.254Z,132.00
2023-04-07T13:44:08.647Z,151.57
2023-04-07T13:45:11.094Z,224.63
2023-04-07T13:46:28.045Z,223.75
2023-04-07T13:47:34.687Z,215.25
2023-04-07T13:48:36.895Z,235.20
2023-04-07T13:49:41.691Z,177.88
2023-04-07T13:50:46.354Z,190.48
2023-04-07T13:51:48.444Z,226.45
2023-04-07T13:52:53.103Z,220.35
2023-04-07T13:53:57.764Z,220.18